createdAt,value
2022-09-13T00:00:01.250Z,23.55
2022-09-13T00:02:29.974Z,16.77
2022-09-13T00:04:58.854Z,19.50
2022-09-13T00:07:27.532Z,19.67
2022-09-13T00:09:57.557Z,20.30
2022-09-13T00:12:26.397Z,27.20
2022-09-13T00:14:55.076Z,18.15
2022-09-13T00:17:23.737Z,18.10
2022-09-13T00:19:52.582Z,22.15
2022-09-13T00:22:21.331Z,18.02
2022-09-13T00:24:50.108Z,20.83
2022-09-13T00:27:20.661Z,21.85
2022-09-13T00:29:49.507Z,19.60
2022-09-13T00:32:18.206Z,22.85
2022-09-13T00:34:46.916Z,21.08
2022-09-13T00:37:16.311Z,23.20
2022-09-13T00:39:47.995Z,19.35
2022-09-13T00:42:25.666Z,24.35
2022-09-13T00:44:58.796Z,24.48
2022-09-13T00:47:41.586Z,20.02
2022-09-13T00:50:19.238Z,27.40
2022-09-13T00:52:53.699Z,20.77
2022-09-13T00:55:26.867Z,21.60
2022-09-13T00:58:03.946Z,23.63
2022-09-13T01:00:32.987Z,23.88
2022-09-13T01:03:05.984Z,25.40
2022-09-13T01:08:12.730Z,20.58
2022-09-13T01:10:41.958Z,18.48
2022-09-13T01:13:17.503Z,22.83
2022-09-13T01:15:46.856Z,25.45
2022-09-13T01:18:16.776Z,21.85
2022-09-13T01:21:08.841Z,17.73
2022-09-13T01:24:09.475Z,22.55
2022-09-13T01:26:59.867Z,19.40
2022-09-13T01:30:04.003Z,17.73
2022-09-13T01:32:42.352Z,21.10
2022-09-13T01:35:23.974Z,18.05
2022-09-13T01:38:03.614Z,19.65
2022-09-13T01:40:49.988Z,23.85
2022-09-13T01:43:36.677Z,17.92
2022-09-13T01:46:10.694Z,18.80
2022-09-13T01:48:55.700Z,17.60
2022-09-13T01:51:33.559Z,19.52
2022-09-13T01:54:15.337Z,23.08
2022-09-13T01:56:54.072Z,18.10
2022-09-13T01:59:30.283Z,17.73
2022-09-13T02:02:07.627Z,21.42
2022-09-13T02:04:41.081Z,25.98
2022-09-13T02:07:15.319Z,21.95
2022-09-13T02:09:50.604Z,22.50
2022-09-13T02:12:22.955Z,24.67
2022-09-13T02:15:00.003Z,21.10
2022-09-13T02:17:35.534Z,20.88
2022-09-13T02:20:18.524Z,23.75
2022-09-13T02:22:51.978Z,24.33
2022-09-13T02:25:24.095Z,29.77
2022-09-13T02:27:58.985Z,25.17
2022-09-13T02:30:29.991Z,28.33
2022-09-13T02:33:06.441Z,23.02
2022-09-13T02:35:39.782Z,22.17
2022-09-13T02:38:14.288Z,25.05
2022-09-13T02:40:46.572Z,28.33
2022-09-13T02:43:18.845Z,28.77
2022-09-13T02:45:54.983Z,31.20
2022-09-13T02:48:37.373Z,27.70
2022-09-13T02:51:13.738Z,27.70
2022-09-13T02:53:46.869Z,30.08
2022-09-13T02:56:25.234Z,30.10
2022-09-13T02:58:59.124Z,28.27
2022-09-13T03:01:28.374Z,25.25
2022-09-13T03:03:58.478Z,28.30
2022-09-13T03:06:28.711Z,30.50
2022-09-13T03:09:00.690Z,32.72
2022-09-13T03:11:42.656Z,30.45
2022-09-13T03:14:33.703Z,32.70
2022-09-13T03:17:14.908Z,30.27
2022-09-13T03:20:04.082Z,33.75
2022-09-13T03:22:53.935Z,34.88
2022-09-13T03:25:36.098Z,35.22
2022-09-13T03:28:18.786Z,34.10
2022-09-13T03:30:54.443Z,32.97
2022-09-13T03:33:30.415Z,34.88
2022-09-13T03:36:10.229Z,34.78
2022-09-13T03:38:43.021Z,32.78
2022-09-13T03:41:18.315Z,38.00
2022-09-13T03:43:52.009Z,32.38
2022-09-13T03:46:26.791Z,29.70
2022-09-13T03:48:58.077Z,29.38
2022-09-13T03:51:28.327Z,32.72
2022-09-13T03:54:01.456Z,31.08
2022-09-13T03:56:30.205Z,35.92
2022-09-13T03:58:58.938Z,35.33
2022-09-13T04:01:28.401Z,32.63
2022-09-13T04:03:57.423Z,38.10
2022-09-13T04:06:26.484Z,37.92
2022-09-13T04:08:56.796Z,36.92
2022-09-13T04:11:28.430Z,36.88
2022-09-13T04:13:57.844Z,35.95
2022-09-13T04:16:26.635Z,31.65
2022-09-13T04:18:55.414Z,36.55
2022-09-13T04:21:24.214Z,35.95
2022-09-13T04:23:52.819Z,37.50
2022-09-13T04:26:22.791Z,35.40
2022-09-13T04:28:53.600Z,37.63
2022-09-13T04:31:22.340Z,41.47
2022-09-13T04:33:51.096Z,43.85
2022-09-13T04:36:23.880Z,33.90
2022-09-13T04:38:52.563Z,36.33
2022-09-13T04:41:22.502Z,40.40
2022-09-13T04:43:51.459Z,40.63
2022-09-13T04:46:20.199Z,36.55
2022-09-13T04:48:50.636Z,38.80
2022-09-13T04:51:19.702Z,34.38
2022-09-13T04:53:48.372Z,35.08
2022-09-13T04:56:18.038Z,39.53
2022-09-13T04:58:48.203Z,31.67
2022-09-13T05:01:17.125Z,27.70
2022-09-13T05:03:46.134Z,28.92
2022-09-13T05:06:18.913Z,35.95
2022-09-13T05:08:52.217Z,34.67
2022-09-13T05:11:20.966Z,34.03
2022-09-13T05:13:55.248Z,39.58
2022-09-13T05:16:25.731Z,45.58
2022-09-13T05:18:54.810Z,58.58
2022-09-13T05:21:24.131Z,39.85
2022-09-13T05:23:54.186Z,31.95
2022-09-13T05:26:24.159Z,30.38
2022-09-13T05:28:54.645Z,30.73
2022-09-13T05:31:26.092Z,34.70
2022-09-13T05:34:00.144Z,29.70
2022-09-13T05:36:29.411Z,41.33
2022-09-13T05:39:26.087Z,28.50
2022-09-13T05:41:50.027Z,29.75
2022-09-13T05:44:22.243Z,32.53
2022-09-13T05:46:50.975Z,33.78
2022-09-13T05:49:19.684Z,27.48
2022-09-13T05:51:48.442Z,33.45
2022-09-13T05:54:17.191Z,27.08
2022-09-13T05:56:45.886Z,35.53
2022-09-13T05:59:15.342Z,41.10
2022-09-13T06:01:45.394Z,35.80
2022-09-13T06:04:14.618Z,33.75
2022-09-13T06:06:43.236Z,32.55
2022-09-13T06:09:12.937Z,36.10
2022-09-13T06:11:41.736Z,32.78
2022-09-13T06:14:11.183Z,35.78
2022-09-13T06:16:39.987Z,43.15
2022-09-13T06:19:10.004Z,78.53
2022-09-13T06:21:38.636Z,36.03
2022-09-13T06:24:07.896Z,33.80
2022-09-13T06:26:36.580Z,37.17
2022-09-13T06:29:05.754Z,33.83
2022-09-13T06:31:34.484Z,36.17
2022-09-13T06:34:03.788Z,32.42
2022-09-13T06:36:33.852Z,45.03
2022-09-13T06:39:02.545Z,45.28
2022-09-13T06:41:31.187Z,35.45
2022-09-13T06:44:01.417Z,40.42
2022-09-13T06:46:31.899Z,36.22
2022-09-13T06:49:01.500Z,32.53
2022-09-13T06:51:31.054Z,38.63
2022-09-13T06:54:01.505Z,35.30
2022-09-13T06:56:34.096Z,33.28
2022-09-13T06:59:04.973Z,27.52
2022-09-13T07:01:35.213Z,19.45
2022-09-13T07:04:06.849Z,27.48
2022-09-13T07:06:37.505Z,21.08
2022-09-13T07:09:10.131Z,20.70
2022-09-13T07:11:41.022Z,16.27
2022-09-13T07:14:14.433Z,18.15
2022-09-13T07:16:43.352Z,15.52
2022-09-13T07:19:16.208Z,12.20
2022-09-13T07:21:45.981Z,17.95
2022-09-13T07:24:15.969Z,9.63
2022-09-13T07:26:45.063Z,14.60
2022-09-13T07:29:19.217Z,7.47
2022-09-13T07:31:49.985Z,11.65
2022-09-13T07:34:22.808Z,11.50
2022-09-13T07:36:52.639Z,8.05
2022-09-13T07:39:24.858Z,10.80
2022-09-13T07:41:54.672Z,9.90
2022-09-13T07:44:25.635Z,9.45
2022-09-13T07:46:54.202Z,7.10
2022-09-13T07:49:22.910Z,8.55
2022-09-13T07:51:53.018Z,9.00
2022-09-13T07:54:23.029Z,11.60
2022-09-13T07:56:51.933Z,10.48
2022-09-13T07:59:20.712Z,5.30
2022-09-13T08:01:50.817Z,12.93
2022-09-13T08:04:21.672Z,10.70
2022-09-13T08:06:50.402Z,7.72
2022-09-13T08:09:19.152Z,4.88
2022-09-13T08:11:52.837Z,8.93
2022-09-13T08:14:24.202Z,3.70
2022-09-13T08:16:56.737Z,7.30
2022-09-13T08:19:25.415Z,5.15
2022-09-13T08:21:54.061Z,4.32
2022-09-13T08:24:23.388Z,6.50
2022-09-13T08:26:56.319Z,3.63
2022-09-13T08:29:25.497Z,6.30
2022-09-13T08:31:54.257Z,3.50
2022-09-13T08:34:22.963Z,6.90
2022-09-13T08:36:51.597Z,7.05
2022-09-13T08:39:20.332Z,2.28
2022-09-13T08:42:22.643Z,5.72
2022-09-13T08:44:55.909Z,4.40
2022-09-13T08:47:41.590Z,5.05
2022-09-13T08:50:19.624Z,6.03
2022-09-13T08:53:00.017Z,8.75
2022-09-13T08:55:41.744Z,6.72
2022-09-13T08:58:26.488Z,5.78
2022-09-13T09:01:03.073Z,8.63
2022-09-13T09:03:42.539Z,4.55
2022-09-13T09:06:16.000Z,5.13
2022-09-13T09:08:49.806Z,6.45
2022-09-13T09:11:30.453Z,2.90
2022-09-13T09:14:04.729Z,1.65
2022-09-13T09:16:41.228Z,5.28
2022-09-13T09:19:22.649Z,6.10
2022-09-13T09:21:52.468Z,6.82
2022-09-13T09:24:24.819Z,7.00
2022-09-13T09:26:55.188Z,7.82
2022-09-13T09:29:28.965Z,13.38
2022-09-13T09:32:14.629Z,6.20
2022-09-13T09:34:51.323Z,6.70
2022-09-13T09:37:22.573Z,3.00
2022-09-13T09:39:53.403Z,9.73
2022-09-13T09:42:26.299Z,2.92
2022-09-13T09:45:28.055Z,2.90
2022-09-13T09:48:02.940Z,8.15
2022-09-13T09:50:39.034Z,5.40
2022-09-13T09:53:15.802Z,2.42
2022-09-13T09:55:48.702Z,4.85
2022-09-13T09:58:19.025Z,8.32
2022-09-13T10:00:56.504Z,3.85
2022-09-13T10:03:29.308Z,4.78
2022-09-13T10:06:06.881Z,2.88
2022-09-13T10:08:39.806Z,7.43
2022-09-13T10:11:09.284Z,4.82
2022-09-13T10:13:41.449Z,3.55
2022-09-13T10:16:29.920Z,5.45
2022-09-13T10:19:25.329Z,8.32
2022-09-13T10:22:08.474Z,6.72
2022-09-13T10:24:37.665Z,2.53
2022-09-13T10:27:17.929Z,5.22
2022-09-13T10:29:55.697Z,3.92
2022-09-13T10:32:29.494Z,3.20
2022-09-13T10:35:09.046Z,3.00
2022-09-13T10:37:38.646Z,3.17
2022-09-13T10:40:14.247Z,5.00
2022-09-13T10:42:54.372Z,7.65
2022-09-13T10:45:25.656Z,2.67
2022-09-13T10:47:56.931Z,2.47
2022-09-13T10:50:29.284Z,6.32
2022-09-13T10:53:01.457Z,6.78
2022-09-13T10:55:36.062Z,3.50
2022-09-13T10:58:21.173Z,9.70
2022-09-13T11:01:40.778Z,5.53
2022-09-13T11:04:45.227Z,7.90
2022-09-13T11:07:28.812Z,3.42
2022-09-13T11:10:04.465Z,3.75
2022-09-13T11:12:41.335Z,6.03
2022-09-13T11:15:20.585Z,2.08
2022-09-13T11:18:26.141Z,5.53
2022-09-13T11:21:03.211Z,2.03
2022-09-13T11:24:16.231Z,5.18
2022-09-13T11:26:59.911Z,6.03
2022-09-13T11:29:47.203Z,3.08
2022-09-13T11:32:29.920Z,4.50
2022-09-13T11:35:22.137Z,4.03
2022-09-13T11:38:00.675Z,3.60
2022-09-13T11:40:45.534Z,3.22
2022-09-13T11:43:32.297Z,1.40
2022-09-13T11:46:11.485Z,5.70
2022-09-13T11:49:02.467Z,5.32
2022-09-13T11:51:43.733Z,3.72
2022-09-13T11:54:25.145Z,5.35
2022-09-13T11:56:58.131Z,3.17
2022-09-13T11:59:38.435Z,7.43
2022-09-13T12:02:19.442Z,2.03
2022-09-13T12:05:18.144Z,4.75
2022-09-13T12:07:47.267Z,2.90
2022-09-13T12:10:21.878Z,2.85
2022-09-13T12:12:52.748Z,8.73
2022-09-13T12:15:33.857Z,2.00
2022-09-13T12:18:09.977Z,5.28
2022-09-13T12:20:44.478Z,2.78
2022-09-13T12:23:17.747Z,2.67
2022-09-13T12:25:53.085Z,3.67
2022-09-13T12:28:27.332Z,7.50
2022-09-13T12:31:03.423Z,8.48
2022-09-13T12:33:32.215Z,3.28
2022-09-13T12:36:28.676Z,2.10
2022-09-13T12:39:21.977Z,7.30
2022-09-13T12:42:06.986Z,6.25
2022-09-13T12:44:49.238Z,5.53
2022-09-13T12:47:33.903Z,2.83
2022-09-13T12:50:48.254Z,4.68
2022-09-13T12:53:51.048Z,7.72
2022-09-13T12:56:56.902Z,2.08
2022-09-13T12:59:50.564Z,4.43
2022-09-13T13:02:34.922Z,7.85
2022-09-13T13:05:17.127Z,3.35
2022-09-13T13:07:53.636Z,6.18
2022-09-13T13:10:30.751Z,7.80
2022-09-13T13:13:12.696Z,8.00
2022-09-13T13:16:26.610Z,2.97
2022-09-13T13:18:58.038Z,5.20
2022-09-13T13:21:36.568Z,7.30
2022-09-13T13:24:47.045Z,3.40
2022-09-13T13:27:36.545Z,4.25
2022-09-13T13:30:54.154Z,4.88
2022-09-13T13:33:27.184Z,5.35
2022-09-13T13:35:57.278Z,3.35
2022-09-13T13:38:50.290Z,5.75
2022-09-13T13:44:51.779Z,7.28
2022-09-13T13:48:04.274Z,4.32
2022-09-13T13:50:36.191Z,4.07
2022-09-13T13:53:35.735Z,2.75
2022-09-13T13:56:18.503Z,7.05
2022-09-13T13:58:51.930Z,4.57
2022-09-13T14:01:25.162Z,11.35
2022-09-13T14:04:39.840Z,2.63
2022-09-13T14:07:20.044Z,2.17
2022-09-13T14:10:03.511Z,6.53
2022-09-13T14:12:46.333Z,8.88
2022-09-13T14:18:14.145Z,4.55
2022-09-13T14:21:01.752Z,2.35
2022-09-13T14:23:30.581Z,2.08
2022-09-13T14:26:02.331Z,4.45
2022-09-13T14:28:33.484Z,3.63
2022-09-13T14:31:02.318Z,4.78
2022-09-13T14:33:35.081Z,3.13
2022-09-13T14:36:07.804Z,2.97
2022-09-13T14:38:54.382Z,4.15
2022-09-13T14:44:22.524Z,5.80
2022-09-13T14:46:57.013Z,7.55
2022-09-13T14:49:30.528Z,7.25
2022-09-13T14:52:03.756Z,1.33
2022-09-13T14:54:38.567Z,3.53
2022-09-13T14:57:18.909Z,1.98
2022-09-13T14:59:51.253Z,3.80
2022-09-13T15:02:21.776Z,6.18
2022-09-13T15:04:54.232Z,4.22
2022-09-13T15:07:28.864Z,5.80
2022-09-13T15:10:00.728Z,6.57
2022-09-13T15:12:30.803Z,11.27
2022-09-13T15:15:23.803Z,9.38
2022-09-13T15:17:54.101Z,9.30
2022-09-13T15:20:23.513Z,8.80
2022-09-13T15:22:53.766Z,6.47
2022-09-13T15:25:27.705Z,8.38
2022-09-13T15:27:58.737Z,3.53
2022-09-13T15:30:29.834Z,8.70
2022-09-13T15:33:19.633Z,5.55
2022-09-13T15:35:49.093Z,7.13
2022-09-13T15:38:23.869Z,6.85
2022-09-13T15:41:02.350Z,7.93
2022-09-13T15:43:35.458Z,4.13
2022-09-13T15:46:04.798Z,3.85
2022-09-13T15:48:35.496Z,9.93
2022-09-13T15:51:10.041Z,9.25
2022-09-13T15:53:41.081Z,9.02
2022-09-13T15:56:13.923Z,6.07
2022-09-13T15:58:44.186Z,7.32
2022-09-13T16:01:14.415Z,8.73
2022-09-13T16:03:43.912Z,7.88
2022-09-13T16:06:15.183Z,4.27
2022-09-13T16:08:43.849Z,12.68
2022-09-13T16:11:12.616Z,3.90
2022-09-13T16:13:41.340Z,8.02
2022-09-13T16:16:15.107Z,14.40
2022-09-13T16:18:49.956Z,3.85
2022-09-13T16:21:18.709Z,11.00
2022-09-13T16:23:47.385Z,7.45
2022-09-13T16:26:16.191Z,5.28
2022-09-13T16:28:44.813Z,6.32
2022-09-13T16:31:16.638Z,5.90
2022-09-13T16:33:45.471Z,11.07
2022-09-13T16:36:16.498Z,14.00
2022-09-13T16:38:45.215Z,5.47
2022-09-13T16:41:14.049Z,11.05
2022-09-13T16:43:42.775Z,6.90
2022-09-13T16:46:13.539Z,6.82
2022-09-13T16:48:46.009Z,4.07
2022-09-13T16:51:15.004Z,3.25
2022-09-13T16:53:43.940Z,10.57
2022-09-13T16:56:17.322Z,8.70
2022-09-13T16:58:47.745Z,7.53
2022-09-13T17:01:19.485Z,6.15
2022-09-13T17:03:54.456Z,5.55
2022-09-13T17:06:25.336Z,6.78
2022-09-13T17:08:56.692Z,5.43
2022-09-13T17:11:27.730Z,6.35
2022-09-13T17:13:59.321Z,7.25
2022-09-13T17:16:30.347Z,3.83
2022-09-13T17:19:03.016Z,6.32
2022-09-13T17:21:33.811Z,6.05
2022-09-13T17:24:03.498Z,5.75
2022-09-13T17:26:32.418Z,7.38
2022-09-13T17:29:01.301Z,4.95
2022-09-13T17:31:30.008Z,3.72
2022-09-13T17:34:00.139Z,8.00
2022-09-13T17:36:28.935Z,11.07
2022-09-13T17:38:58.546Z,10.15
2022-09-13T17:41:27.526Z,6.00
2022-09-13T17:43:56.168Z,5.15
2022-09-13T17:46:27.902Z,6.18
2022-09-13T17:48:58.449Z,6.03
2022-09-13T17:51:30.016Z,6.63
2022-09-13T17:54:00.442Z,3.83
2022-09-13T17:56:31.304Z,5.80
2022-09-13T17:59:10.285Z,5.75
2022-09-13T18:01:42.113Z,7.57
2022-09-13T18:04:13.151Z,8.15
2022-09-13T18:06:44.448Z,6.53
2022-09-13T18:09:15.043Z,8.55
2022-09-13T18:11:44.688Z,5.65
2022-09-13T18:14:14.689Z,5.38
2022-09-13T18:16:43.923Z,5.75
2022-09-13T18:19:12.802Z,7.88
2022-09-13T18:21:43.131Z,14.02
2022-09-13T18:24:11.987Z,7.15
2022-09-13T18:26:42.908Z,9.63
2022-09-13T18:29:12.911Z,4.22
2022-09-13T18:31:42.829Z,8.02
2022-09-13T18:34:14.194Z,7.43
2022-09-13T18:36:44.491Z,8.90
2022-09-13T18:39:17.949Z,6.30
2022-09-13T18:41:48.513Z,7.88
2022-09-13T18:44:19.255Z,10.77
2022-09-13T18:46:49.259Z,7.97
2022-09-13T18:49:19.829Z,6.05
2022-09-13T18:51:51.573Z,7.18
2022-09-13T18:54:21.027Z,4.93
2022-09-13T18:56:50.674Z,7.00
2022-09-13T18:59:20.823Z,7.70
2022-09-13T19:01:52.160Z,10.30
2022-09-13T19:04:22.992Z,7.03
2022-09-13T19:06:56.097Z,8.43
2022-09-13T19:09:26.445Z,9.35
2022-09-13T19:12:02.898Z,10.02
2022-09-13T19:14:33.272Z,11.70
2022-09-13T19:17:03.361Z,13.52
2022-09-13T19:19:34.316Z,6.15
2022-09-13T19:22:04.904Z,10.27
2022-09-13T19:24:37.325Z,10.05
2022-09-13T19:27:09.612Z,11.27
2022-09-13T19:29:39.059Z,10.75
2022-09-13T19:32:08.152Z,7.65
2022-09-13T19:34:37.402Z,5.63
2022-09-13T19:37:07.792Z,16.13
2022-09-13T19:39:36.774Z,9.05
2022-09-13T19:42:08.209Z,10.70
2022-09-13T19:44:36.855Z,8.15
2022-09-13T19:47:57.489Z,7.32
2022-09-13T19:49:56.006Z,6.68
2022-09-13T19:52:26.115Z,8.85
2022-09-13T19:54:56.396Z,9.00
2022-09-13T19:57:27.528Z,8.90
2022-09-13T19:59:56.212Z,14.73
2022-09-13T20:02:25.186Z,9.02
2022-09-13T20:04:53.846Z,10.43
2022-09-13T20:07:22.499Z,6.53
2022-09-13T20:09:52.687Z,7.05
2022-09-13T20:12:23.784Z,10.50
2022-09-13T20:14:52.663Z,7.35
2022-09-13T20:17:21.402Z,11.77
2022-09-13T20:19:50.502Z,11.82
2022-09-13T20:22:19.250Z,6.10
2022-09-13T20:24:48.708Z,6.45
2022-09-13T20:27:18.692Z,8.30
2022-09-13T20:29:47.271Z,10.02
2022-09-13T20:32:17.712Z,15.70
2022-09-13T20:34:46.599Z,7.35
2022-09-13T20:37:15.221Z,6.95
2022-09-13T20:39:44.295Z,14.30
2022-09-13T20:42:12.975Z,6.53
2022-09-13T20:44:43.017Z,12.27
2022-09-13T20:47:11.637Z,5.75
2022-09-13T20:49:43.610Z,7.45
2022-09-13T20:52:16.298Z,8.27
2022-09-13T20:54:45.316Z,3.28
2022-09-13T20:57:13.964Z,6.00
2022-09-13T20:59:46.616Z,6.75
2022-09-13T21:02:17.882Z,5.55
2022-09-13T21:04:46.696Z,8.52
2022-09-13T21:07:32.599Z,9.50
2022-09-13T21:10:05.261Z,4.82
2022-09-13T21:12:35.706Z,13.73
2022-09-13T21:15:06.897Z,8.35
2022-09-13T21:17:38.093Z,8.88
2022-09-13T21:20:10.087Z,4.97
2022-09-13T21:22:39.602Z,8.63
2022-09-13T21:25:09.325Z,7.60
2022-09-13T21:27:38.083Z,6.90
2022-09-13T21:30:09.388Z,8.65
2022-09-13T21:32:38.432Z,9.52
2022-09-13T21:35:08.050Z,8.15
2022-09-13T21:37:36.975Z,9.23
2022-09-13T21:40:06.851Z,7.60
2022-09-13T21:42:35.992Z,8.13
2022-09-13T21:45:06.162Z,5.03
2022-09-13T21:47:36.345Z,7.28
2022-09-13T21:50:08.520Z,6.93
2022-09-13T21:52:37.341Z,7.15
2022-09-13T21:55:06.720Z,6.10
2022-09-13T21:57:35.597Z,3.92
2022-09-13T22:00:09.246Z,6.88
2022-09-13T22:02:43.332Z,2.15
2022-09-13T22:05:13.312Z,6.35
2022-09-13T22:07:42.150Z,4.70
2022-09-13T22:10:13.698Z,3.58
2022-09-13T22:12:42.447Z,6.10
2022-09-13T22:15:12.268Z,8.90
2022-09-13T22:17:40.954Z,5.82
2022-09-13T22:20:12.020Z,6.85
2022-09-13T22:22:40.699Z,7.35
2022-09-13T22:25:09.906Z,7.10
2022-09-13T22:27:38.988Z,4.85
2022-09-13T22:30:09.312Z,6.22
2022-09-13T22:32:38.076Z,5.70
2022-09-13T22:35:09.485Z,4.07
2022-09-13T22:37:39.546Z,2.67
2022-09-13T22:40:09.105Z,7.82
2022-09-13T22:42:37.814Z,8.25
2022-09-13T22:45:07.893Z,5.18
2022-09-13T22:47:36.565Z,14.50
2022-09-13T22:50:07.979Z,3.03
2022-09-13T22:52:36.647Z,2.47
2022-09-13T22:55:07.553Z,5.65
2022-09-13T23:00:08.081Z,3.75
2022-09-13T23:02:36.778Z,7.18
2022-09-13T23:05:05.983Z,6.40
2022-09-13T23:07:34.877Z,5.80
2022-09-13T23:10:03.605Z,5.13
2022-09-13T23:12:33.594Z,6.35
2022-09-13T23:15:02.252Z,3.90
2022-09-13T23:17:30.930Z,7.53
2022-09-13T23:19:59.515Z,3.40
2022-09-13T23:22:28.198Z,3.78
2022-09-13T23:24:56.829Z,4.40
2022-09-13T23:27:25.835Z,6.90
2022-09-13T23:29:55.917Z,4.38
2022-09-13T23:32:24.863Z,7.35
2022-09-13T23:34:53.511Z,4.78
2022-09-13T23:37:22.831Z,5.00
2022-09-13T23:39:51.985Z,6.95
2022-09-13T23:42:21.439Z,4.85
2022-09-13T23:44:50.124Z,4.20
2022-09-13T23:47:23.241Z,3.17
2022-09-13T23:49:52.309Z,5.30
2022-09-13T23:52:21.005Z,6.20
2022-09-13T23:54:49.695Z,13.45
2022-09-13T23:57:18.315Z,6.13
2022-09-13T23:59:47.013Z,6.03
